Saint Paul, Canada
Current Conditions -  °F | °C
As of 2:00 AM on Monday 20 Oct 2014 (Local Time) from CYOD Reporting Station
Scattered Clouds Scattered Clouds  
Wind Chill: 48°   Ceiling: Unl
Heat Index: 48°   Visibility: 15mi
Dew Point: 37°   Wind: 3mph
Humidity: 66%   Direction: 110°ESE
Pressure: 29.64"   Gusts: NA
Location:  53.98°N, 111.28°W
Report Text: CYOD 200800Z 11003KT 15SM SCT240 09/03 A2964 RMK CI2 SLP048
Loading
Personal Weather Stations






























Interactive Weather Map
Tropical Storm Tracking
New forecast layout! Learn more

10-Day Weather Forecast

Advertisements
Track Severe Weather on mobile